sensor_id;sensor_type;location;lat;lon;timestamp;P1;durP1;ratioP1;P2;durP2;ratioP2
17524;SDS011;40431;52.198;9.902;2022-08-02T00:01:50;7.33;;;2.83;;
17524;SDS011;40431;52.198;9.902;2022-08-02T00:04:16;3.73;;;2.20;;
17524;SDS011;40431;52.198;9.902;2022-08-02T00:06:43;5.87;;;3.23;;
17524;SDS011;40431;52.198;9.902;2022-08-02T00:09:09;4.20;;;2.30;;
17524;SDS011;40431;52.198;9.902;2022-08-02T00:11:36;4.93;;;2.13;;
17524;SDS011;40431;52.198;9.902;2022-08-02T00:14:04;3.93;;;2.70;;
17524;SDS011;40431;52.198;9.902;2022-08-02T00:16:31;5.40;;;2.37;;
17524;SDS011;40431;52.198;9.902;2022-08-02T00:18:57;4.20;;;2.50;;
17524;SDS011;40431;52.198;9.902;2022-08-02T00:21:23;4.23;;;2.13;;
17524;SDS011;40431;52.198;9.902;2022-08-02T00:23:50;5.50;;;2.73;;
17524;SDS011;40431;52.198;9.902;2022-08-02T00:26:16;5.23;;;2.40;;
17524;SDS011;40431;52.198;9.902;2022-08-02T00:28:42;6.87;;;2.90;;
17524;SDS011;40431;52.198;9.902;2022-08-02T00:31:10;4.30;;;2.43;;
17524;SDS011;40431;52.198;9.902;2022-08-02T00:33:36;3.93;;;2.63;;
17524;SDS011;40431;52.198;9.902;2022-08-02T00:36:03;4.87;;;2.47;;
17524;SDS011;40431;52.198;9.902;2022-08-02T00:38:29;6.90;;;2.50;;
17524;SDS011;40431;52.198;9.902;2022-08-02T00:40:56;3.73;;;2.40;;
17524;SDS011;40431;52.198;9.902;2022-08-02T00:43:22;4.00;;;2.27;;
17524;SDS011;40431;52.198;9.902;2022-08-02T00:45:48;5.83;;;2.37;;
17524;SDS011;40431;52.198;9.902;2022-08-02T00:48:16;3.87;;;2.50;;
17524;SDS011;40431;52.198;9.902;2022-08-02T00:50:42;4.67;;;2.57;;
17524;SDS011;40431;52.198;9.902;2022-08-02T00:53:09;2.33;;;2.13;;
17524;SDS011;40431;52.198;9.902;2022-08-02T00:55:35;4.63;;;2.77;;
17524;SDS011;40431;52.198;9.902;2022-08-02T00:58:03;4.57;;;2.70;;
17524;SDS011;40431;52.198;9.902;2022-08-02T01:00:30;4.70;;;2.47;;
17524;SDS011;40431;52.198;9.902;2022-08-02T01:02:56;3.13;;;2.40;;
17524;SDS011;40431;52.198;9.902;2022-08-02T01:05:24;5.97;;;2.57;;
17524;SDS011;40431;52.198;9.902;2022-08-02T01:07:50;5.00;;;2.63;;
17524;SDS011;40431;52.198;9.902;2022-08-02T01:10:17;3.93;;;2.47;;
17524;SDS011;40431;52.198;9.902;2022-08-02T01:12:43;4.63;;;2.87;;
17524;SDS011;40431;52.198;9.902;2022-08-02T01:15:11;3.47;;;2.80;;
17524;SDS011;40431;52.198;9.902;2022-08-02T01:17:41;4.17;;;2.40;;
17524;SDS011;40431;52.198;9.902;2022-08-02T01:20:14;3.17;;;2.33;;
17524;SDS011;40431;52.198;9.902;2022-08-02T01:23:00;7.77;;;2.73;;
17524;SDS011;40431;52.198;9.902;2022-08-02T01:25:43;5.83;;;2.57;;
17524;SDS011;40431;52.198;9.902;2022-08-02T01:28:28;2.93;;;2.60;;
17524;SDS011;40431;52.198;9.902;2022-08-02T01:31:01;3.80;;;2.80;;
17524;SDS011;40431;52.198;9.902;2022-08-02T01:33:34;4.13;;;2.90;;
17524;SDS011;40431;52.198;9.902;2022-08-02T01:36:05;6.03;;;2.60;;
17524;SDS011;40431;52.198;9.902;2022-08-02T01:38:36;3.30;;;2.40;;
17524;SDS011;40431;52.198;9.902;2022-08-02T01:41:05;5.90;;;3.00;;
17524;SDS011;40431;52.198;9.902;2022-08-02T01:43:35;3.87;;;2.60;;
17524;SDS011;40431;52.198;9.902;2022-08-02T01:46:05;3.63;;;2.60;;
17524;SDS011;40431;52.198;9.902;2022-08-02T01:48:33;5.97;;;2.10;;
17524;SDS011;40431;52.198;9.902;2022-08-02T01:51:00;4.80;;;2.60;;
17524;SDS011;40431;52.198;9.902;2022-08-02T01:53:28;3.70;;;2.60;;
17524;SDS011;40431;52.198;9.902;2022-08-02T01:55:57;5.17;;;2.57;;
17524;SDS011;40431;52.198;9.902;2022-08-02T01:58:26;4.17;;;2.10;;
17524;SDS011;40431;52.198;9.902;2022-08-02T02:00:57;3.67;;;2.37;;
17524;SDS011;40431;52.198;9.902;2022-08-02T02:03:26;4.43;;;2.60;;
17524;SDS011;40431;52.198;9.902;2022-08-02T02:05:54;2.97;;;2.50;;
17524;SDS011;40431;52.198;9.902;2022-08-02T02:08:23;4.13;;;2.60;;
17524;SDS011;40431;52.198;9.902;2022-08-02T02:10:54;3.87;;;2.43;;
17524;SDS011;40431;52.198;9.902;2022-08-02T02:13:21;5.10;;;2.40;;
17524;SDS011;40431;52.198;9.902;2022-08-02T02:15:50;4.13;;;2.47;;
17524;SDS011;40431;52.198;9.902;2022-08-02T02:18:21;4.63;;;2.40;;
17524;SDS011;40431;52.198;9.902;2022-08-02T02:20:49;3.10;;;2.63;;
17524;SDS011;40431;52.198;9.902;2022-08-02T02:23:16;2.97;;;2.73;;
17524;SDS011;40431;52.198;9.902;2022-08-02T02:25:43;7.87;;;3.27;;
17524;SDS011;40431;52.198;9.902;2022-08-02T02:28:10;5.83;;;2.70;;
17524;SDS011;40431;52.198;9.902;2022-08-02T02:30:39;4.57;;;2.63;;
17524;SDS011;40431;52.198;9.902;2022-08-02T02:33:09;3.10;;;2.80;;
17524;SDS011;40431;52.198;9.902;2022-08-02T02:35:40;5.13;;;2.70;;
17524;SDS011;40431;52.198;9.902;2022-08-02T02:38:08;3.27;;;2.13;;
17524;SDS011;40431;52.198;9.902;2022-08-02T02:40:37;4.43;;;2.33;;
17524;SDS011;40431;52.198;9.902;2022-08-02T02:43:05;2.80;;;2.23;;
17524;SDS011;40431;52.198;9.902;2022-08-02T02:45:34;4.30;;;2.73;;
17524;SDS011;40431;52.198;9.902;2022-08-02T02:48:03;4.90;;;2.70;;
17524;SDS011;40431;52.198;9.902;2022-08-02T02:50:30;7.40;;;2.87;;
17524;SDS011;40431;52.198;9.902;2022-08-02T02:52:59;3.67;;;2.70;;
17524;SDS011;40431;52.198;9.902;2022-08-02T02:55:26;6.67;;;2.50;;
17524;SDS011;40431;52.198;9.902;2022-08-02T02:57:53;3.47;;;2.60;;
17524;SDS011;40431;52.198;9.902;2022-08-02T03:00:20;3.33;;;2.80;;
17524;SDS011;40431;52.198;9.902;2022-08-02T03:03:07;4.37;;;2.70;;
17524;SDS011;40431;52.198;9.902;2022-08-02T03:05:34;3.73;;;2.70;;
17524;SDS011;40431;52.198;9.902;2022-08-02T03:08:02;3.77;;;2.40;;
17524;SDS011;40431;52.198;9.902;2022-08-02T03:10:29;3.87;;;2.40;;
17524;SDS011;40431;52.198;9.902;2022-08-02T03:12:56;4.23;;;2.90;;
17524;SDS011;40431;52.198;9.902;2022-08-02T03:15:23;3.87;;;2.80;;
17524;SDS011;40431;52.198;9.902;2022-08-02T03:17:52;7.07;;;2.40;;
17524;SDS011;40431;52.198;9.902;2022-08-02T03:20:19;4.50;;;3.30;;
17524;SDS011;40431;52.198;9.902;2022-08-02T03:22:46;6.50;;;2.93;;
17524;SDS011;40431;52.198;9.902;2022-08-02T03:25:14;3.97;;;2.90;;
17524;SDS011;40431;52.198;9.902;2022-08-02T03:27:42;3.47;;;2.67;;
17524;SDS011;40431;52.198;9.902;2022-08-02T03:30:09;4.07;;;3.37;;
17524;SDS011;40431;52.198;9.902;2022-08-02T03:32:37;4.30;;;3.40;;
17524;SDS011;40431;52.198;9.902;2022-08-02T03:35:06;7.90;;;3.57;;
17524;SDS011;40431;52.198;9.902;2022-08-02T03:37:36;6.73;;;3.40;;
17524;SDS011;40431;52.198;9.902;2022-08-02T03:40:03;3.70;;;2.90;;
17524;SDS011;40431;52.198;9.902;2022-08-02T03:42:33;6.53;;;3.23;;
17524;SDS011;40431;52.198;9.902;2022-08-02T03:45:00;4.00;;;2.37;;
17524;SDS011;40431;52.198;9.902;2022-08-02T03:47:28;7.47;;;3.60;;
17524;SDS011;40431;52.198;9.902;2022-08-02T03:49:55;3.07;;;2.77;;
17524;SDS011;40431;52.198;9.902;2022-08-02T03:52:22;5.13;;;2.27;;
17524;SDS011;40431;52.198;9.902;2022-08-02T03:54:51;5.50;;;3.30;;
17524;SDS011;40431;52.198;9.902;2022-08-02T03:57:17;5.40;;;3.47;;
17524;SDS011;40431;52.198;9.902;2022-08-02T03:59:45;3.13;;;2.73;;
17524;SDS011;40431;52.198;9.902;2022-08-02T04:02:12;6.40;;;2.83;;
17524;SDS011;40431;52.198;9.902;2022-08-02T04:04:39;4.90;;;3.10;;
17524;SDS011;40431;52.198;9.902;2022-08-02T04:07:05;6.00;;;3.80;;
17524;SDS011;40431;52.198;9.902;2022-08-02T04:09:32;4.93;;;3.50;;
17524;SDS011;40431;52.198;9.902;2022-08-02T04:11:58;6.67;;;3.53;;
17524;SDS011;40431;52.198;9.902;2022-08-02T04:14:24;6.40;;;3.03;;
17524;SDS011;40431;52.198;9.902;2022-08-02T04:16:54;4.87;;;2.80;;
17524;SDS011;40431;52.198;9.902;2022-08-02T04:19:28;5.77;;;3.43;;
17524;SDS011;40431;52.198;9.902;2022-08-02T04:21:58;5.13;;;3.27;;
17524;SDS011;40431;52.198;9.902;2022-08-02T04:24:30;4.03;;;3.43;;
17524;SDS011;40431;52.198;9.902;2022-08-02T04:27:01;5.07;;;2.97;;
17524;SDS011;40431;52.198;9.902;2022-08-02T04:29:29;5.10;;;3.43;;
17524;SDS011;40431;52.198;9.902;2022-08-02T04:31:59;6.00;;;3.27;;
17524;SDS011;40431;52.198;9.902;2022-08-02T04:34:26;5.97;;;3.00;;
17524;SDS011;40431;52.198;9.902;2022-08-02T04:36:53;4.93;;;2.93;;
17524;SDS011;40431;52.198;9.902;2022-08-02T04:39:19;5.00;;;3.50;;
17524;SDS011;40431;52.198;9.902;2022-08-02T04:41:46;4.67;;;2.97;;
17524;SDS011;40431;52.198;9.902;2022-08-02T04:44:12;8.27;;;3.53;;
17524;SDS011;40431;52.198;9.902;2022-08-02T04:46:39;4.83;;;3.50;;
17524;SDS011;40431;52.198;9.902;2022-08-02T04:49:09;3.67;;;3.37;;
17524;SDS011;40431;52.198;9.902;2022-08-02T04:51:36;6.20;;;3.40;;
17524;SDS011;40431;52.198;9.902;2022-08-02T04:54:03;4.30;;;3.23;;
17524;SDS011;40431;52.198;9.902;2022-08-02T04:56:31;5.77;;;3.40;;
17524;SDS011;40431;52.198;9.902;2022-08-02T04:58:57;5.00;;;3.50;;
17524;SDS011;40431;52.198;9.902;2022-08-02T05:01:23;5.70;;;3.13;;
17524;SDS011;40431;52.198;9.902;2022-08-02T05:03:50;5.73;;;3.80;;
17524;SDS011;40431;52.198;9.902;2022-08-02T05:06:18;6.50;;;3.70;;
17524;SDS011;40431;52.198;9.902;2022-08-02T05:08:44;6.63;;;3.57;;
17524;SDS011;40431;52.198;9.902;2022-08-02T05:11:11;3.47;;;2.60;;
17524;SDS011;40431;52.198;9.902;2022-08-02T05:13:39;5.00;;;3.97;;
17524;SDS011;40431;52.198;9.902;2022-08-02T05:16:06;7.93;;;3.53;;
17524;SDS011;40431;52.198;9.902;2022-08-02T05:18:32;7.33;;;3.83;;
17524;SDS011;40431;52.198;9.902;2022-08-02T05:20:59;6.30;;;4.00;;
17524;SDS011;40431;52.198;9.902;2022-08-02T05:23:27;5.33;;;3.33;;
17524;SDS011;40431;52.198;9.902;2022-08-02T05:25:53;5.10;;;3.90;;
17524;SDS011;40431;52.198;9.902;2022-08-02T05:28:20;5.90;;;4.20;;
17524;SDS011;40431;52.198;9.902;2022-08-02T05:30:46;5.17;;;4.47;;
17524;SDS011;40431;52.198;9.902;2022-08-02T05:33:13;8.00;;;4.77;;
17524;SDS011;40431;52.198;9.902;2022-08-02T05:35:39;7.33;;;4.47;;
17524;SDS011;40431;52.198;9.902;2022-08-02T05:38:06;5.37;;;4.20;;
17524;SDS011;40431;52.198;9.902;2022-08-02T05:40:33;6.10;;;4.50;;
17524;SDS011;40431;52.198;9.902;2022-08-02T05:43:00;10.43;;;4.80;;
17524;SDS011;40431;52.198;9.902;2022-08-02T05:45:26;9.37;;;5.43;;
17524;SDS011;40431;52.198;9.902;2022-08-02T05:47:53;8.50;;;4.50;;
17524;SDS011;40431;52.198;9.902;2022-08-02T05:50:19;5.67;;;4.60;;
17524;SDS011;40431;52.198;9.902;2022-08-02T05:52:49;6.93;;;4.50;;
17524;SDS011;40431;52.198;9.902;2022-08-02T05:55:17;12.80;;;5.27;;
17524;SDS011;40431;52.198;9.902;2022-08-02T05:57:51;8.90;;;4.60;;
17524;SDS011;40431;52.198;9.902;2022-08-02T06:00:22;7.97;;;5.03;;
17524;SDS011;40431;52.198;9.902;2022-08-02T06:02:57;5.43;;;4.53;;
17524;SDS011;40431;52.198;9.902;2022-08-02T06:05:28;8.33;;;3.97;;
17524;SDS011;40431;52.198;9.902;2022-08-02T06:07:58;4.77;;;3.97;;
17524;SDS011;40431;52.198;9.902;2022-08-02T06:10:25;7.73;;;4.17;;
17524;SDS011;40431;52.198;9.902;2022-08-02T06:12:55;5.63;;;4.47;;
17524;SDS011;40431;52.198;9.902;2022-08-02T06:15:30;8.63;;;4.53;;
17524;SDS011;40431;52.198;9.902;2022-08-02T06:17:57;7.40;;;5.10;;
17524;SDS011;40431;52.198;9.902;2022-08-02T06:20:25;7.33;;;4.50;;
17524;SDS011;40431;52.198;9.902;2022-08-02T06:22:52;5.73;;;4.43;;
17524;SDS011;40431;52.198;9.902;2022-08-02T06:25:23;9.57;;;4.60;;
17524;SDS011;40431;52.198;9.902;2022-08-02T06:27:50;11.73;;;5.27;;
17524;SDS011;40431;52.198;9.902;2022-08-02T06:30:20;5.63;;;4.33;;
17524;SDS011;40431;52.198;9.902;2022-08-02T06:32:47;9.13;;;5.00;;
17524;SDS011;40431;52.198;9.902;2022-08-02T06:35:15;8.57;;;4.17;;
17524;SDS011;40431;52.198;9.902;2022-08-02T06:37:43;7.47;;;4.77;;
17524;SDS011;40431;52.198;9.902;2022-08-02T06:40:13;8.90;;;4.87;;
17524;SDS011;40431;52.198;9.902;2022-08-02T06:42:51;6.10;;;4.40;;
17524;SDS011;40431;52.198;9.902;2022-08-02T06:45:27;5.43;;;4.30;;
17524;SDS011;40431;52.198;9.902;2022-08-02T06:47:54;5.50;;;3.87;;
17524;SDS011;40431;52.198;9.902;2022-08-02T06:50:20;7.43;;;4.10;;
17524;SDS011;40431;52.198;9.902;2022-08-02T06:52:46;7.20;;;4.07;;
17524;SDS011;40431;52.198;9.902;2022-08-02T06:55:13;9.00;;;3.63;;
17524;SDS011;40431;52.198;9.902;2022-08-02T06:57:39;5.70;;;3.70;;
17524;SDS011;40431;52.198;9.902;2022-08-02T07:00:06;7.07;;;3.97;;
17524;SDS011;40431;52.198;9.902;2022-08-02T07:02:35;7.27;;;3.57;;
17524;SDS011;40431;52.198;9.902;2022-08-02T07:05:02;4.77;;;3.10;;
17524;SDS011;40431;52.198;9.902;2022-08-02T07:07:32;14.70;;;3.23;;
17524;SDS011;40431;52.198;9.902;2022-08-02T07:09:59;6.43;;;3.10;;
17524;SDS011;40431;52.198;9.902;2022-08-02T07:12:25;5.30;;;2.77;;
17524;SDS011;40431;52.198;9.902;2022-08-02T07:14:53;4.47;;;2.57;;
17524;SDS011;40431;52.198;9.902;2022-08-02T07:17:19;5.87;;;3.13;;
17524;SDS011;40431;52.198;9.902;2022-08-02T07:19:47;3.73;;;2.70;;
17524;SDS011;40431;52.198;9.902;2022-08-02T07:22:13;3.63;;;2.17;;
17524;SDS011;40431;52.198;9.902;2022-08-02T07:24:42;4.93;;;2.63;;
17524;SDS011;40431;52.198;9.902;2022-08-02T07:27:09;6.03;;;2.50;;
17524;SDS011;40431;52.198;9.902;2022-08-02T07:29:35;2.97;;;2.33;;
17524;SDS011;40431;52.198;9.902;2022-08-02T07:32:02;5.60;;;2.67;;
17524;SDS011;40431;52.198;9.902;2022-08-02T07:34:28;4.30;;;2.47;;
17524;SDS011;40431;52.198;9.902;2022-08-02T07:36:56;6.37;;;2.80;;
17524;SDS011;40431;52.198;9.902;2022-08-02T07:39:22;4.87;;;2.70;;
17524;SDS011;40431;52.198;9.902;2022-08-02T07:41:49;9.37;;;2.50;;
17524;SDS011;40431;52.198;9.902;2022-08-02T07:44:16;5.27;;;2.23;;
17524;SDS011;40431;52.198;9.902;2022-08-02T07:46:43;7.37;;;2.10;;
17524;SDS011;40431;52.198;9.902;2022-08-02T07:49:09;4.63;;;1.97;;
17524;SDS011;40431;52.198;9.902;2022-08-02T07:51:37;5.63;;;2.67;;
17524;SDS011;40431;52.198;9.902;2022-08-02T07:54:05;13.27;;;3.60;;
17524;SDS011;40431;52.198;9.902;2022-08-02T07:56:31;4.43;;;2.27;;
17524;SDS011;40431;52.198;9.902;2022-08-02T07:58:58;7.80;;;2.90;;
17524;SDS011;40431;52.198;9.902;2022-08-02T08:01:24;3.73;;;2.40;;
17524;SDS011;40431;52.198;9.902;2022-08-02T08:03:50;5.37;;;3.00;;
17524;SDS011;40431;52.198;9.902;2022-08-02T08:06:17;4.70;;;2.60;;
17524;SDS011;40431;52.198;9.902;2022-08-02T08:08:43;6.03;;;3.03;;
17524;SDS011;40431;52.198;9.902;2022-08-02T08:11:11;3.17;;;2.30;;
17524;SDS011;40431;52.198;9.902;2022-08-02T08:13:37;4.33;;;2.67;;
17524;SDS011;40431;52.198;9.902;2022-08-02T08:16:04;3.97;;;2.60;;
17524;SDS011;40431;52.198;9.902;2022-08-02T08:18:31;4.80;;;2.70;;
17524;SDS011;40431;52.198;9.902;2022-08-02T08:20:57;5.70;;;3.17;;
17524;SDS011;40431;52.198;9.902;2022-08-02T08:23:24;3.37;;;2.93;;
17524;SDS011;40431;52.198;9.902;2022-08-02T08:25:50;3.63;;;2.70;;
17524;SDS011;40431;52.198;9.902;2022-08-02T08:28:18;4.13;;;2.83;;
17524;SDS011;40431;52.198;9.902;2022-08-02T08:30:45;4.17;;;3.13;;
17524;SDS011;40431;52.198;9.902;2022-08-02T08:33:12;6.53;;;3.30;;
17524;SDS011;40431;52.198;9.902;2022-08-02T08:35:38;4.40;;;3.27;;
17524;SDS011;40431;52.198;9.902;2022-08-02T08:38:05;3.20;;;2.80;;
17524;SDS011;40431;52.198;9.902;2022-08-02T08:40:32;7.27;;;2.97;;
17524;SDS011;40431;52.198;9.902;2022-08-02T08:42:59;5.23;;;3.03;;
17524;SDS011;40431;52.198;9.902;2022-08-02T08:45:27;3.33;;;3.00;;
17524;SDS011;40431;52.198;9.902;2022-08-02T08:47:55;4.43;;;3.43;;
17524;SDS011;40431;52.198;9.902;2022-08-02T08:50:26;3.53;;;3.13;;
17524;SDS011;40431;52.198;9.902;2022-08-02T08:53:00;4.80;;;3.07;;
17524;SDS011;40431;52.198;9.902;2022-08-02T08:55:28;4.13;;;3.73;;
17524;SDS011;40431;52.198;9.902;2022-08-02T08:57:55;6.53;;;3.97;;
17524;SDS011;40431;52.198;9.902;2022-08-02T09:00:23;3.73;;;2.93;;
17524;SDS011;40431;52.198;9.902;2022-08-02T09:02:52;3.97;;;3.00;;
17524;SDS011;40431;52.198;9.902;2022-08-02T09:05:18;3.93;;;2.53;;
17524;SDS011;40431;52.198;9.902;2022-08-02T09:07:45;2.93;;;2.63;;
17524;SDS011;40431;52.198;9.902;2022-08-02T09:13:08;3.77;;;2.80;;
17524;SDS011;40431;52.198;9.902;2022-08-02T09:15:37;3.27;;;2.97;;
17524;SDS011;40431;52.198;9.902;2022-08-02T09:18:06;5.60;;;2.87;;
17524;SDS011;40431;52.198;9.902;2022-08-02T09:20:34;4.73;;;3.50;;
17524;SDS011;40431;52.198;9.902;2022-08-02T09:23:15;4.90;;;3.20;;
17524;SDS011;40431;52.198;9.902;2022-08-02T09:25:42;4.17;;;2.60;;
17524;SDS011;40431;52.198;9.902;2022-08-02T09:28:20;3.13;;;2.80;;
17524;SDS011;40431;52.198;9.902;2022-08-02T09:30:50;7.50;;;3.57;;
17524;SDS011;40431;52.198;9.902;2022-08-02T09:33:24;4.73;;;3.77;;
17524;SDS011;40431;52.198;9.902;2022-08-02T09:35:54;4.13;;;3.00;;
17524;SDS011;40431;52.198;9.902;2022-08-02T09:38:24;3.00;;;2.63;;
17524;SDS011;40431;52.198;9.902;2022-08-02T09:40:50;5.37;;;2.90;;
17524;SDS011;40431;52.198;9.902;2022-08-02T09:43:17;4.23;;;3.07;;
17524;SDS011;40431;52.198;9.902;2022-08-02T09:45:44;3.37;;;3.07;;
17524;SDS011;40431;52.198;9.902;2022-08-02T09:48:11;5.03;;;2.97;;
17524;SDS011;40431;52.198;9.902;2022-08-02T09:50:39;4.23;;;2.70;;
17524;SDS011;40431;52.198;9.902;2022-08-02T09:53:10;3.70;;;2.83;;
17524;SDS011;40431;52.198;9.902;2022-08-02T09:55:37;3.53;;;2.40;;
17524;SDS011;40431;52.198;9.902;2022-08-02T09:58:18;2.50;;;2.00;;
17524;SDS011;40431;52.198;9.902;2022-08-02T10:00:54;3.13;;;2.10;;
17524;SDS011;40431;52.198;9.902;2022-08-02T10:03:23;2.17;;;1.97;;
17524;SDS011;40431;52.198;9.902;2022-08-02T10:05:51;2.33;;;2.13;;
17524;SDS011;40431;52.198;9.902;2022-08-02T10:08:19;3.33;;;2.33;;
17524;SDS011;40431;52.198;9.902;2022-08-02T10:10:47;4.20;;;2.27;;
17524;SDS011;40431;52.198;9.902;2022-08-02T10:13:24;3.40;;;2.40;;
17524;SDS011;40431;52.198;9.902;2022-08-02T10:15:52;2.50;;;2.17;;
17524;SDS011;40431;52.198;9.902;2022-08-02T10:18:20;2.57;;;2.17;;
17524;SDS011;40431;52.198;9.902;2022-08-02T10:20:46;2.10;;;2.00;;
17524;SDS011;40431;52.198;9.902;2022-08-02T10:23:16;2.73;;;2.20;;
17524;SDS011;40431;52.198;9.902;2022-08-02T10:25:48;3.40;;;2.60;;
17524;SDS011;40431;52.198;9.902;2022-08-02T10:28:16;2.63;;;2.40;;
17524;SDS011;40431;52.198;9.902;2022-08-02T10:30:44;2.27;;;2.03;;
17524;SDS011;40431;52.198;9.902;2022-08-02T10:33:13;2.30;;;2.20;;
17524;SDS011;40431;52.198;9.902;2022-08-02T10:35:42;2.73;;;2.40;;
17524;SDS011;40431;52.198;9.902;2022-08-02T10:38:12;2.53;;;2.33;;
17524;SDS011;40431;52.198;9.902;2022-08-02T10:40:44;2.83;;;1.67;;
17524;SDS011;40431;52.198;9.902;2022-08-02T10:43:11;2.07;;;1.80;;
17524;SDS011;40431;52.198;9.902;2022-08-02T10:45:38;3.60;;;1.80;;
17524;SDS011;40431;52.198;9.902;2022-08-02T10:48:07;1.70;;;1.60;;
17524;SDS011;40431;52.198;9.902;2022-08-02T10:50:51;2.80;;;2.23;;
17524;SDS011;40431;52.198;9.902;2022-08-02T10:53:23;1.80;;;1.70;;
17524;SDS011;40431;52.198;9.902;2022-08-02T10:55:51;1.67;;;1.57;;
17524;SDS011;40431;52.198;9.902;2022-08-02T10:58:18;2.40;;;1.37;;
17524;SDS011;40431;52.198;9.902;2022-08-02T11:00:46;2.03;;;1.30;;
17524;SDS011;40431;52.198;9.902;2022-08-02T11:03:32;1.57;;;1.30;;
17524;SDS011;40431;52.198;9.902;2022-08-02T11:06:00;1.67;;;1.27;;
17524;SDS011;40431;52.198;9.902;2022-08-02T11:08:29;1.53;;;1.30;;
17524;SDS011;40431;52.198;9.902;2022-08-02T11:10:59;1.43;;;1.30;;
17524;SDS011;40431;52.198;9.902;2022-08-02T11:13:26;1.57;;;1.40;;
17524;SDS011;40431;52.198;9.902;2022-08-02T11:15:58;1.87;;;1.67;;
17524;SDS011;40431;52.198;9.902;2022-08-02T11:21:28;1.57;;;1.47;;
17524;SDS011;40431;52.198;9.902;2022-08-02T11:24:21;1.10;;;1.10;;
17524;SDS011;40431;52.198;9.902;2022-08-02T11:26:52;2.87;;;1.40;;
17524;SDS011;40431;52.198;9.902;2022-08-02T11:29:18;1.80;;;1.70;;
17524;SDS011;40431;52.198;9.902;2022-08-02T11:31:45;1.53;;;1.43;;
17524;SDS011;40431;52.198;9.902;2022-08-02T11:34:12;1.63;;;1.53;;
17524;SDS011;40431;52.198;9.902;2022-08-02T11:36:44;3.57;;;2.27;;
17524;SDS011;40431;52.198;9.902;2022-08-02T11:39:14;2.50;;;1.90;;
17524;SDS011;40431;52.198;9.902;2022-08-02T11:41:41;2.63;;;1.80;;
17524;SDS011;40431;52.198;9.902;2022-08-02T11:44:13;1.60;;;1.50;;
17524;SDS011;40431;52.198;9.902;2022-08-02T11:46:39;1.50;;;1.40;;
17524;SDS011;40431;52.198;9.902;2022-08-02T11:49:12;1.87;;;1.47;;
17524;SDS011;40431;52.198;9.902;2022-08-02T11:51:53;1.97;;;1.53;;
17524;SDS011;40431;52.198;9.902;2022-08-02T11:54:25;2.23;;;1.80;;
17524;SDS011;40431;52.198;9.902;2022-08-02T11:57:12;1.43;;;1.33;;
17524;SDS011;40431;52.198;9.902;2022-08-02T11:59:40;3.63;;;1.77;;
17524;SDS011;40431;52.198;9.902;2022-08-02T12:02:08;1.60;;;1.50;;
17524;SDS011;40431;52.198;9.902;2022-08-02T12:04:36;1.90;;;1.30;;
17524;SDS011;40431;52.198;9.902;2022-08-02T12:07:04;2.43;;;1.73;;
17524;SDS011;40431;52.198;9.902;2022-08-02T12:09:33;1.60;;;1.50;;
17524;SDS011;40431;52.198;9.902;2022-08-02T12:12:00;1.97;;;1.63;;
17524;SDS011;40431;52.198;9.902;2022-08-02T12:14:28;1.70;;;1.60;;
17524;SDS011;40431;52.198;9.902;2022-08-02T12:16:55;2.00;;;1.63;;
17524;SDS011;40431;52.198;9.902;2022-08-02T12:19:40;1.40;;;1.30;;
17524;SDS011;40431;52.198;9.902;2022-08-02T12:22:08;1.73;;;1.63;;
17524;SDS011;40431;52.198;9.902;2022-08-02T12:24:39;1.87;;;1.30;;
17524;SDS011;40431;52.198;9.902;2022-08-02T12:27:07;1.43;;;1.23;;
17524;SDS011;40431;52.198;9.902;2022-08-02T12:29:34;2.63;;;1.50;;
17524;SDS011;40431;52.198;9.902;2022-08-02T12:32:01;1.80;;;1.30;;
17524;SDS011;40431;52.198;9.902;2022-08-02T12:34:29;1.40;;;1.30;;
17524;SDS011;40431;52.198;9.902;2022-08-02T12:36:58;1.60;;;1.50;;
17524;SDS011;40431;52.198;9.902;2022-08-02T12:39:34;1.73;;;1.37;;
17524;SDS011;40431;52.198;9.902;2022-08-02T12:42:04;1.40;;;1.30;;
17524;SDS011;40431;52.198;9.902;2022-08-02T12:44:32;1.60;;;1.50;;
17524;SDS011;40431;52.198;9.902;2022-08-02T12:47:01;1.90;;;1.47;;
17524;SDS011;40431;52.198;9.902;2022-08-02T12:49:29;1.30;;;1.20;;
17524;SDS011;40431;52.198;9.902;2022-08-02T12:51:56;2.43;;;1.40;;
17524;SDS011;40431;52.198;9.902;2022-08-02T12:54:23;3.07;;;1.87;;
17524;SDS011;40431;52.198;9.902;2022-08-02T12:56:51;1.40;;;1.30;;
17524;SDS011;40431;52.198;9.902;2022-08-02T12:59:33;1.57;;;1.40;;
17524;SDS011;40431;52.198;9.902;2022-08-02T13:02:01;1.90;;;1.40;;
17524;SDS011;40431;52.198;9.902;2022-08-02T13:04:28;4.93;;;1.37;;
17524;SDS011;40431;52.198;9.902;2022-08-02T13:06:56;1.57;;;1.47;;
17524;SDS011;40431;52.198;9.902;2022-08-02T13:09:22;1.33;;;1.20;;
17524;SDS011;40431;52.198;9.902;2022-08-02T13:11:49;2.00;;;1.57;;
17524;SDS011;40431;52.198;9.902;2022-08-02T13:14:15;2.20;;;1.40;;
17524;SDS011;40431;52.198;9.902;2022-08-02T13:16:43;6.33;;;1.67;;
17524;SDS011;40431;52.198;9.902;2022-08-02T13:19:10;1.33;;;1.23;;
17524;SDS011;40431;52.198;9.902;2022-08-02T13:21:41;1.40;;;1.30;;
17524;SDS011;40431;52.198;9.902;2022-08-02T13:24:09;1.50;;;1.30;;
17524;SDS011;40431;52.198;9.902;2022-08-02T13:26:38;1.43;;;1.33;;
17524;SDS011;40431;52.198;9.902;2022-08-02T13:29:05;1.93;;;1.40;;
17524;SDS011;40431;52.198;9.902;2022-08-02T13:31:31;1.37;;;1.23;;
17524;SDS011;40431;52.198;9.902;2022-08-02T13:34:02;1.63;;;1.53;;
17524;SDS011;40431;52.198;9.902;2022-08-02T13:36:29;3.27;;;1.57;;
17524;SDS011;40431;52.198;9.902;2022-08-02T13:38:57;2.00;;;1.30;;
17524;SDS011;40431;52.198;9.902;2022-08-02T13:41:23;2.13;;;1.57;;
17524;SDS011;40431;52.198;9.902;2022-08-02T13:43:50;1.47;;;1.13;;
17524;SDS011;40431;52.198;9.902;2022-08-02T13:46:16;5.73;;;1.60;;
17524;SDS011;40431;52.198;9.902;2022-08-02T13:48:44;1.47;;;1.37;;
17524;SDS011;40431;52.198;9.902;2022-08-02T13:51:11;1.57;;;1.47;;
17524;SDS011;40431;52.198;9.902;2022-08-02T13:53:38;2.73;;;1.30;;
17524;SDS011;40431;52.198;9.902;2022-08-02T13:56:05;1.33;;;1.23;;
17524;SDS011;40431;52.198;9.902;2022-08-02T13:58:31;1.20;;;1.10;;
17524;SDS011;40431;52.198;9.902;2022-08-02T14:00:58;1.47;;;1.37;;
17524;SDS011;40431;52.198;9.902;2022-08-02T14:03:24;2.03;;;1.00;;
17524;SDS011;40431;52.198;9.902;2022-08-02T14:05:51;1.17;;;1.07;;
17524;SDS011;40431;52.198;9.902;2022-08-02T14:08:19;2.40;;;1.40;;
17524;SDS011;40431;52.198;9.902;2022-08-02T14:10:47;3.00;;;1.30;;
17524;SDS011;40431;52.198;9.902;2022-08-02T14:13:14;1.37;;;1.20;;
17524;SDS011;40431;52.198;9.902;2022-08-02T14:15:40;1.43;;;1.30;;
17524;SDS011;40431;52.198;9.902;2022-08-02T14:18:07;1.37;;;1.27;;
17524;SDS011;40431;52.198;9.902;2022-08-02T14:20:34;2.23;;;1.40;;
17524;SDS011;40431;52.198;9.902;2022-08-02T14:23:00;1.50;;;1.40;;
17524;SDS011;40431;52.198;9.902;2022-08-02T14:25:28;1.37;;;1.27;;
17524;SDS011;40431;52.198;9.902;2022-08-02T14:27:54;1.30;;;1.20;;
17524;SDS011;40431;52.198;9.902;2022-08-02T14:30:21;1.50;;;1.40;;
17524;SDS011;40431;52.198;9.902;2022-08-02T14:32:47;2.47;;;1.60;;
17524;SDS011;40431;52.198;9.902;2022-08-02T14:35:14;2.00;;;1.40;;
17524;SDS011;40431;52.198;9.902;2022-08-02T14:37:41;1.87;;;1.33;;
17524;SDS011;40431;52.198;9.902;2022-08-02T14:40:08;1.97;;;1.77;;
17524;SDS011;40431;52.198;9.902;2022-08-02T14:42:36;1.30;;;1.20;;
17524;SDS011;40431;52.198;9.902;2022-08-02T14:45:02;1.40;;;1.30;;
17524;SDS011;40431;52.198;9.902;2022-08-02T14:47:29;2.60;;;1.47;;
17524;SDS011;40431;52.198;9.902;2022-08-02T14:49:56;1.30;;;1.20;;
17524;SDS011;40431;52.198;9.902;2022-08-02T14:52:22;1.80;;;1.47;;
17524;SDS011;40431;52.198;9.902;2022-08-02T14:54:49;2.50;;;1.43;;
17524;SDS011;40431;52.198;9.902;2022-08-02T14:57:15;2.10;;;1.40;;
17524;SDS011;40431;52.198;9.902;2022-08-02T14:59:43;1.40;;;1.30;;
17524;SDS011;40431;52.198;9.902;2022-08-02T15:02:09;1.93;;;1.50;;